Main page
Satellite images 10-day forecastsClimateMarine weather Cyclones Lightning AirportsFAQ Newsletter About
Weather : Europe Africa North America South America Asia Australia-Oceania Others
Languages Contact

Istanbul Sabiha Gökçen, Turkey

Sabiha Gökçen International Airport

latitude: 40-53-55N, longitude: 029-18-33E, elevation: 95 m


METAR: LTFJ 180820Z 25021KT CAVOK 20/07 Q1013 NOSIG
TAF: LTFJ 180440Z 1806/1906 24018KT CAVOK

Time: 11:43 (08:43 UTC)

Current weather observation

The report was made 23 minutes ago, at 08:20 UTC
Wind 21 kt from the West/Southwest
Temperature 20°C
Humidity 43%
Pressure 1013 hPa
Visibility 10 km or more
no clouds below 1500 m and no cumulonimbus

Change units

Forecast

The report was made 4 hours and 3 minutes ago, at 04:40 UTC
Forecast valid from 18 at 06 UTC to 19 at 06 UTC
Wind 18 kt from the West/Southwest
Visibility 10 km or more
no clouds below 1500 m and no cumulonimbus
The information on this site is subject to a disclaimer
Weather : Europe Africa North America South America Asia Australia-Oceania Others
Satellite images 10-day forecastsClimateMarine weather Cyclones Lightning AirportsFAQ Languages Contact Newsletter About